createdAt,value
2019-02-22T00:02:19.474Z,91.60
2019-02-22T00:04:53.588Z,94.77
2019-02-22T00:07:26.592Z,98.77
2019-02-22T00:09:59.693Z,102.87
2019-02-22T00:12:32.952Z,98.07
2019-02-22T00:15:06.844Z,105.90
2019-02-22T00:17:39.711Z,101.70
2019-02-22T00:20:12.605Z,100.07
2019-02-22T00:22:45.400Z,102.30
2019-02-22T00:25:18.402Z,100.40
2019-02-22T00:27:51.281Z,101.13
2019-02-22T00:30:24.432Z,104.77
2019-02-22T00:32:57.247Z,106.93
2019-02-22T00:35:30.335Z,105.40
2019-02-22T00:38:03.423Z,114.80
2019-02-22T00:40:36.350Z,118.83
2019-02-22T00:43:09.337Z,121.70
2019-02-22T00:45:42.552Z,128.20
2019-02-22T00:48:15.895Z,123.23
2019-02-22T00:50:48.757Z,123.10
2019-02-22T00:53:21.620Z,118.43
2019-02-22T00:55:54.666Z,123.33
2019-02-22T00:58:27.843Z,119.53
2019-02-22T01:01:00.933Z,117.07
2019-02-22T01:03:34.032Z,116.33
2019-02-22T01:06:06.997Z,116.07
2019-02-22T01:08:39.903Z,115.97
2019-02-22T01:11:12.610Z,114.87
2019-02-22T01:13:45.491Z,110.13
2019-02-22T01:16:18.670Z,112.00
2019-02-22T01:18:51.728Z,105.33
2019-02-22T01:21:24.816Z,113.90
2019-02-22T01:23:58.648Z,116.13
2019-02-22T01:26:31.448Z,113.50
2019-02-22T01:29:04.460Z,113.93
2019-02-22T01:31:38.401Z,118.83
2019-02-22T01:34:11.488Z,109.43
2019-02-22T01:36:44.344Z,104.07
2019-02-22T01:39:17.354Z,105.03
2019-02-22T01:41:50.219Z,108.23
2019-02-22T01:44:23.324Z,104.53
2019-02-22T01:46:56.138Z,109.20
2019-02-22T01:49:28.921Z,97.50
2019-02-22T01:52:01.802Z,97.60
2019-02-22T01:54:34.725Z,101.27
2019-02-22T01:57:07.616Z,100.23
2019-02-22T01:59:41.367Z,104.07
2019-02-22T02:02:14.483Z,101.10
2019-02-22T02:04:47.535Z,98.40
2019-02-22T02:07:20.257Z,97.47
2019-02-22T02:09:53.268Z,99.80
2019-02-22T02:12:26.324Z,99.57
2019-02-22T02:14:59.151Z,95.57
2019-02-22T02:17:32.045Z,95.67
2019-02-22T02:20:06.214Z,97.90
2019-02-22T02:22:39.128Z,88.77
2019-02-22T02:25:12.595Z,92.23
2019-02-22T02:27:45.641Z,96.97
2019-02-22T02:30:19.655Z,93.33
2019-02-22T02:32:52.499Z,92.93
2019-02-22T02:35:25.619Z,90.17
2019-02-22T02:37:58.676Z,92.33
2019-02-22T02:40:31.600Z,88.30
2019-02-22T02:43:04.671Z,91.03
2019-02-22T02:45:37.682Z,88.13
2019-02-22T02:48:10.574Z,90.73
2019-02-22T02:50:43.334Z,94.40
2019-02-22T02:53:16.132Z,91.27
2019-02-22T02:55:49.058Z,89.67
2019-02-22T02:58:21.928Z,88.57
2019-02-22T03:00:55.060Z,86.70
2019-02-22T03:03:28.128Z,84.37
2019-02-22T03:06:12.209Z,96.57
2019-02-22T03:08:45.338Z,89.37
2019-02-22T03:11:21.049Z,89.23
2019-02-22T03:13:53.117Z,93.30
2019-02-22T03:16:26.066Z,90.67
2019-02-22T03:18:58.993Z,88.87
2019-02-22T03:21:31.905Z,84.50
2019-02-22T03:24:04.892Z,88.47
2019-02-22T03:26:37.705Z,87.47
2019-02-22T03:29:10.530Z,82.80
2019-02-22T03:31:43.687Z,79.80
2019-02-22T03:34:16.569Z,83.17
2019-02-22T03:36:49.500Z,79.97
2019-02-22T03:39:22.300Z,81.30
2019-02-22T03:41:55.104Z,83.03
2019-02-22T03:44:27.960Z,82.57
2019-02-22T03:47:00.816Z,80.70
2019-02-22T03:49:33.905Z,74.77
2019-02-22T03:52:29.493Z,77.53
2019-02-22T03:55:03.329Z,74.10
2019-02-22T03:57:36.286Z,76.03
2019-02-22T04:00:09.478Z,81.10
2019-02-22T04:02:42.352Z,80.10
2019-02-22T04:05:15.324Z,80.87
2019-02-22T04:07:48.127Z,78.10
2019-02-22T04:10:21.056Z,87.27
2019-02-22T04:12:54.199Z,84.73
2019-02-22T04:15:26.946Z,84.57
2019-02-22T04:17:59.804Z,92.17
2019-02-22T04:20:32.752Z,83.70
2019-02-22T04:23:06.601Z,76.63
2019-02-22T04:25:39.372Z,78.10
2019-02-22T04:28:12.241Z,74.60
2019-02-22T04:30:45.483Z,79.30
2019-02-22T04:33:18.306Z,73.20
2019-02-22T04:35:51.131Z,73.13
2019-02-22T04:38:24.056Z,72.17
2019-02-22T04:40:56.921Z,72.37
2019-02-22T04:43:29.740Z,80.33
2019-02-22T04:46:02.878Z,81.27
2019-02-22T04:48:35.881Z,81.20
2019-02-22T04:51:08.798Z,80.97
2019-02-22T04:53:41.678Z,75.00
2019-02-22T04:56:14.492Z,74.60
2019-02-22T04:58:47.550Z,73.17
2019-02-22T05:01:20.523Z,71.05
2019-02-22T05:03:53.740Z,73.03
2019-02-22T05:06:26.605Z,72.40
2019-02-22T05:08:59.472Z,69.10
2019-02-22T05:11:32.642Z,64.73
2019-02-22T05:14:06.429Z,62.73
2019-02-22T05:16:39.530Z,67.43
2019-02-22T05:19:12.390Z,69.07
2019-02-22T05:21:45.307Z,64.63
2019-02-22T05:24:18.147Z,65.43
2019-02-22T05:26:51.030Z,68.10
2019-02-22T05:29:24.022Z,69.20
2019-02-22T05:31:56.929Z,68.43
2019-02-22T05:34:30.090Z,70.50
2019-02-22T05:37:02.828Z,75.00
2019-02-22T05:39:35.641Z,68.90
2019-02-22T05:42:08.419Z,70.97
2019-02-22T05:44:41.196Z,75.37
2019-02-22T05:47:13.928Z,77.30
2019-02-22T05:49:46.792Z,79.10
2019-02-22T05:52:19.693Z,73.03
2019-02-22T05:54:52.777Z,75.60
2019-02-22T05:57:26.155Z,81.53
2019-02-22T05:59:59.103Z,80.70
2019-02-22T06:02:33.990Z,70.33
2019-02-22T06:05:07.079Z,68.60
2019-02-22T06:07:39.965Z,66.57
2019-02-22T06:10:13.033Z,67.27
2019-02-22T06:12:46.458Z,71.97
2019-02-22T06:15:19.272Z,70.67
2019-02-22T06:17:52.375Z,68.80
2019-02-22T06:20:25.138Z,72.23
2019-02-22T06:22:58.113Z,71.33
2019-02-22T06:25:31.203Z,70.33
2019-02-22T06:28:04.026Z,68.93
2019-02-22T06:30:37.300Z,67.83
2019-02-22T06:33:10.162Z,65.93
2019-02-22T06:35:43.153Z,62.47
2019-02-22T06:38:16.131Z,64.92
2019-02-22T06:40:49.409Z,64.13
2019-02-22T06:43:22.359Z,63.57
2019-02-22T06:45:55.705Z,58.73
2019-02-22T06:48:28.616Z,62.13
2019-02-22T06:51:01.386Z,61.67
2019-02-22T06:53:34.332Z,62.17
2019-02-22T06:56:07.555Z,64.60
2019-02-22T06:58:40.359Z,62.70
2019-02-22T07:01:13.288Z,62.33
2019-02-22T07:03:46.252Z,63.03
2019-02-22T07:06:19.352Z,60.33
2019-02-22T07:08:52.281Z,62.20
2019-02-22T07:11:50.798Z,65.93
2019-02-22T07:14:23.811Z,63.90
2019-02-22T07:16:56.697Z,63.47
2019-02-22T07:19:29.583Z,66.93
2019-02-22T07:22:02.590Z,65.20
2019-02-22T07:24:35.647Z,63.97
2019-02-22T07:27:08.813Z,67.53
2019-02-22T07:29:42.001Z,67.13
2019-02-22T07:32:15.009Z,67.63
2019-02-22T07:34:48.216Z,65.63
2019-02-22T07:37:21.371Z,64.03
2019-02-22T07:39:54.453Z,63.63
2019-02-22T07:42:27.534Z,67.93
2019-02-22T07:45:00.673Z,62.53
2019-02-22T07:47:33.693Z,63.55
2019-02-22T07:50:08.905Z,63.07
2019-02-22T07:52:41.974Z,63.40
2019-02-22T07:55:15.028Z,60.10
2019-02-22T07:57:47.963Z,62.95
2019-02-22T08:00:21.227Z,67.58
2019-02-22T08:02:54.433Z,61.90
2019-02-22T08:05:27.772Z,60.85
2019-02-22T08:08:00.844Z,63.85
2019-02-22T08:10:33.918Z,66.62
2019-02-22T08:13:06.902Z,66.70
2019-02-22T08:15:40.057Z,64.15
2019-02-22T08:18:12.872Z,73.07
2019-02-22T08:20:45.644Z,68.65
2019-02-22T08:23:18.964Z,62.97
2019-02-22T08:25:52.163Z,63.07
2019-02-22T08:28:25.080Z,63.45
2019-02-22T08:30:58.168Z,63.28
2019-02-22T08:33:31.514Z,63.13
2019-02-22T08:36:04.488Z,60.85
2019-02-22T08:38:37.318Z,62.50
2019-02-22T08:41:10.614Z,65.70
2019-02-22T08:43:43.632Z,64.05
2019-02-22T08:46:16.648Z,66.85
2019-02-22T08:48:49.643Z,67.90
2019-02-22T08:51:22.836Z,67.37
2019-02-22T08:53:56.853Z,63.33
2019-02-22T08:56:30.048Z,60.92
2019-02-22T08:59:03.163Z,57.20
2019-02-22T09:01:36.125Z,60.55
2019-02-22T09:04:09.265Z,56.37
2019-02-22T09:06:42.409Z,55.08
2019-02-22T09:09:15.304Z,56.40
2019-02-22T09:11:48.343Z,58.20
2019-02-22T09:14:21.293Z,53.95
2019-02-22T09:16:54.338Z,55.20
2019-02-22T09:19:27.117Z,52.35
2019-02-22T09:22:00.196Z,54.87
2019-02-22T09:24:33.302Z,52.35
2019-02-22T09:27:06.434Z,54.20
2019-02-22T09:29:39.585Z,48.78
2019-02-22T09:32:12.715Z,48.80
2019-02-22T09:34:46.260Z,47.43
2019-02-22T09:37:19.678Z,50.35
2019-02-22T09:39:52.592Z,46.48
2019-02-22T09:42:25.714Z,46.05
2019-02-22T09:44:58.858Z,45.78
2019-02-22T09:47:31.805Z,44.33
2019-02-22T09:50:06.685Z,43.42
2019-02-22T09:52:39.730Z,40.70
2019-02-22T09:55:13.035Z,36.55
2019-02-22T09:57:46.047Z,36.05
2019-02-22T10:00:19.086Z,35.90
2019-02-22T10:02:52.059Z,35.80
2019-02-22T10:05:25.360Z,34.70
2019-02-22T10:07:58.650Z,33.42
2019-02-22T10:10:31.546Z,36.50
2019-02-22T10:13:04.700Z,33.13
2019-02-22T10:15:37.751Z,30.97
2019-02-22T10:18:10.660Z,32.98
2019-02-22T10:20:43.596Z,32.35
2019-02-22T10:23:16.679Z,29.70
2019-02-22T10:25:49.853Z,30.72
2019-02-22T10:28:22.843Z,25.50
2019-02-22T10:30:55.749Z,28.52
2019-02-22T10:33:36.393Z,26.95
2019-02-22T10:36:04.065Z,22.35
2019-02-22T10:38:37.345Z,22.70
2019-02-22T10:41:10.441Z,24.57
2019-02-22T10:43:43.464Z,24.92
2019-02-22T10:46:16.443Z,21.93
2019-02-22T10:48:49.549Z,22.58
2019-02-22T10:51:22.524Z,23.40
2019-02-22T10:53:55.360Z,21.10
2019-02-22T10:56:28.476Z,18.37
2019-02-22T10:59:01.524Z,21.15
2019-02-22T11:01:34.689Z,18.05
2019-02-22T11:04:08.045Z,13.30
2019-02-22T11:06:41.109Z,9.23
2019-02-22T11:09:16.045Z,9.68
2019-02-22T11:11:49.174Z,11.18
2019-02-22T11:14:29.134Z,9.60
2019-02-22T11:16:56.927Z,9.95
2019-02-22T11:19:29.814Z,7.10
2019-02-22T11:22:03.065Z,6.95
2019-02-22T11:24:36.474Z,6.40
2019-02-22T11:27:09.467Z,6.17
2019-02-22T11:29:42.481Z,5.80
2019-02-22T11:32:15.447Z,7.20
2019-02-22T11:34:48.416Z,7.17
2019-02-22T11:37:21.672Z,6.92
2019-02-22T11:39:54.705Z,6.10
2019-02-22T11:42:27.616Z,5.97
2019-02-22T11:45:00.811Z,6.22
2019-02-22T11:47:34.064Z,41.37
2019-02-22T11:50:07.125Z,6.87
2019-02-22T11:52:40.210Z,6.08
2019-02-22T11:55:13.438Z,5.17
2019-02-22T11:57:46.250Z,5.70
2019-02-22T12:00:21.775Z,6.12
2019-02-22T12:02:55.225Z,6.30
2019-02-22T12:05:28.296Z,6.22
2019-02-22T12:08:03.502Z,5.47
2019-02-22T12:10:36.275Z,5.15
2019-02-22T12:13:09.126Z,5.90
2019-02-22T12:15:42.214Z,5.70
2019-02-22T12:18:15.231Z,5.62
2019-02-22T12:20:48.363Z,5.50
2019-02-22T12:23:21.167Z,6.50
2019-02-22T12:25:54.196Z,6.05
2019-02-22T12:28:27.285Z,5.92
2019-02-22T12:31:01.526Z,5.47
2019-02-22T12:33:34.658Z,5.20
2019-02-22T12:36:09.518Z,6.00
2019-02-22T12:38:42.511Z,6.28
2019-02-22T12:41:15.872Z,5.83
2019-02-22T12:43:49.110Z,5.00
2019-02-22T12:46:22.030Z,5.45
2019-02-22T12:48:54.969Z,5.37
2019-02-22T12:51:28.372Z,5.30
2019-02-22T12:54:01.147Z,5.37
2019-02-22T12:59:09.233Z,4.67
2019-02-22T13:01:42.377Z,4.20
2019-02-22T13:04:15.545Z,4.55
2019-02-22T13:06:48.682Z,4.05
2019-02-22T13:09:21.977Z,4.53
2019-02-22T13:11:55.212Z,4.20
2019-02-22T13:14:28.400Z,3.92
2019-02-22T13:17:01.215Z,3.70
2019-02-22T13:19:34.468Z,4.47
2019-02-22T13:22:07.378Z,3.30
2019-02-22T13:24:40.470Z,5.42
2019-02-22T13:27:13.467Z,7.00
2019-02-22T13:29:46.331Z,4.45
2019-02-22T13:32:19.683Z,4.30
2019-02-22T13:34:52.701Z,3.47
2019-02-22T13:37:25.768Z,4.22
2019-02-22T13:39:58.626Z,4.30
2019-02-22T13:42:32.098Z,4.28
2019-02-22T13:45:05.879Z,4.67
2019-02-22T13:47:38.982Z,4.30
2019-02-22T13:50:13.071Z,3.90
2019-02-22T13:52:46.115Z,3.80
2019-02-22T13:55:19.015Z,4.03
2019-02-22T13:57:52.037Z,4.35
2019-02-22T14:00:24.929Z,3.75
2019-02-22T14:02:57.876Z,3.77
2019-02-22T14:05:31.013Z,4.17
2019-02-22T14:08:04.154Z,4.12
2019-02-22T14:10:37.177Z,4.33
2019-02-22T14:13:10.508Z,4.55
2019-02-22T14:15:43.434Z,4.37
2019-02-22T14:18:17.398Z,4.62
2019-02-22T14:20:50.489Z,4.92
2019-02-22T14:23:23.449Z,5.03
2019-02-22T14:25:56.261Z,4.30
2019-02-22T14:28:29.184Z,5.00
2019-02-22T14:31:02.102Z,5.00
2019-02-22T14:33:34.998Z,4.80
2019-02-22T14:36:07.885Z,5.42
2019-02-22T14:38:41.117Z,4.78
2019-02-22T14:41:14.125Z,5.20
2019-02-22T14:43:47.129Z,5.92
2019-02-22T14:46:25.994Z,6.15
2019-02-22T14:48:55.169Z,6.50
2019-02-22T14:51:28.173Z,6.17
2019-02-22T14:54:01.037Z,6.17
2019-02-22T14:56:34.177Z,5.83
2019-02-22T14:59:07.220Z,5.62
2019-02-22T15:01:40.354Z,5.95
2019-02-22T15:04:13.193Z,5.37
2019-02-22T15:06:46.283Z,5.75
2019-02-22T15:09:19.505Z,5.67
2019-02-22T15:11:52.563Z,5.50
2019-02-22T15:14:25.450Z,5.40
2019-02-22T15:17:05.862Z,5.62
2019-02-22T15:19:38.722Z,5.40
2019-02-22T15:22:12.141Z,5.65
2019-02-22T15:24:45.004Z,5.80
2019-02-22T15:27:18.209Z,5.50
2019-02-22T15:29:51.250Z,5.75
2019-02-22T15:32:24.373Z,5.28
2019-02-22T15:34:57.539Z,5.40
2019-02-22T15:37:30.580Z,5.47
2019-02-22T15:40:04.051Z,5.03
2019-02-22T15:42:37.094Z,4.75
2019-02-22T15:45:11.368Z,5.67
2019-02-22T15:47:44.551Z,5.15
2019-02-22T15:50:18.610Z,5.22
2019-02-22T15:52:51.658Z,4.75
2019-02-22T15:55:24.779Z,4.95
2019-02-22T15:57:57.606Z,5.15
2019-02-22T16:00:31.026Z,5.28
2019-02-22T16:03:04.104Z,5.58
2019-02-22T16:05:39.660Z,4.97
2019-02-22T16:08:12.617Z,4.97
2019-02-22T16:10:45.537Z,5.62
2019-02-22T16:13:18.575Z,5.90
2019-02-22T16:15:51.506Z,5.55
2019-02-22T16:18:24.419Z,5.80
2019-02-22T16:20:58.355Z,5.97
2019-02-22T16:23:31.465Z,5.30
2019-02-22T16:26:04.853Z,5.90
2019-02-22T16:28:37.828Z,5.78
2019-02-22T16:31:10.928Z,5.42
2019-02-22T16:33:43.734Z,5.55
2019-02-22T16:36:16.559Z,5.42
2019-02-22T16:38:49.600Z,5.25
2019-02-22T16:41:22.436Z,5.33
2019-02-22T16:43:55.420Z,5.40
2019-02-22T16:46:35.078Z,5.95
2019-02-22T16:49:03.032Z,5.90
2019-02-22T16:51:35.971Z,6.25
2019-02-22T16:54:09.000Z,5.53
2019-02-22T16:56:42.976Z,6.15
2019-02-22T16:59:16.074Z,5.60
2019-02-22T17:01:49.182Z,6.55
2019-02-22T17:04:22.075Z,5.85
2019-02-22T17:06:55.387Z,6.37
2019-02-22T17:09:28.289Z,6.35
2019-02-22T17:12:06.547Z,6.92
2019-02-22T17:14:36.996Z,6.40
2019-02-22T17:17:09.964Z,6.12
2019-02-22T17:19:42.840Z,6.30
2019-02-22T17:22:15.906Z,6.00
2019-02-22T17:24:49.737Z,6.25
2019-02-22T17:27:22.806Z,6.05
2019-02-22T17:29:55.604Z,6.67
2019-02-22T17:32:28.494Z,6.30
2019-02-22T17:35:01.841Z,7.35
2019-02-22T17:37:34.940Z,7.42
2019-02-22T17:40:10.623Z,8.33
2019-02-22T17:42:43.526Z,8.20
2019-02-22T17:45:16.442Z,8.30
2019-02-22T17:47:49.460Z,9.33
2019-02-22T17:50:22.381Z,8.55
2019-02-22T17:52:55.196Z,9.85
2019-02-22T17:55:28.160Z,9.93
2019-02-22T17:58:01.172Z,11.53
2019-02-22T18:00:34.031Z,11.25
2019-02-22T18:03:07.202Z,11.88
2019-02-22T18:05:40.401Z,11.65
2019-02-22T18:08:13.441Z,12.05
2019-02-22T18:10:46.650Z,12.58
2019-02-22T18:13:19.597Z,12.40
2019-02-22T18:15:52.547Z,12.40
2019-02-22T18:18:25.551Z,13.30
2019-02-22T18:20:58.370Z,13.70
2019-02-22T18:23:31.205Z,14.18
2019-02-22T18:26:04.270Z,13.58
2019-02-22T18:28:37.054Z,12.68
2019-02-22T18:31:10.341Z,13.22
2019-02-22T18:33:43.271Z,13.72
2019-02-22T18:36:16.157Z,15.28
2019-02-22T18:38:50.098Z,14.73
2019-02-22T18:41:23.132Z,15.05
2019-02-22T18:43:56.244Z,15.87
2019-02-22T18:46:29.276Z,16.17
2019-02-22T18:49:02.487Z,15.20
2019-02-22T18:51:35.402Z,15.45
2019-02-22T18:54:08.544Z,14.07
2019-02-22T18:56:41.295Z,15.60
2019-02-22T18:59:14.213Z,15.80
2019-02-22T19:01:47.166Z,16.75
2019-02-22T19:04:20.127Z,16.70
2019-02-22T19:06:53.187Z,15.78
2019-02-22T19:09:26.006Z,16.90
2019-02-22T19:11:58.858Z,16.00
2019-02-22T19:14:32.035Z,15.95
2019-02-22T19:17:05.846Z,15.80
2019-02-22T19:19:39.002Z,15.47
2019-02-22T19:22:12.006Z,16.60
2019-02-22T19:24:45.042Z,16.25
2019-02-22T19:27:18.064Z,15.78
2019-02-22T19:29:51.171Z,17.25
2019-02-22T19:32:24.044Z,17.33
2019-02-22T19:34:56.968Z,16.20
2019-02-22T19:37:29.839Z,17.07
2019-02-22T19:40:02.977Z,16.43
2019-02-22T19:42:36.264Z,15.47
2019-02-22T19:45:09.458Z,16.57
2019-02-22T19:47:42.620Z,16.53
2019-02-22T19:50:16.754Z,17.07
2019-02-22T19:52:49.847Z,16.67
2019-02-22T19:55:22.887Z,16.23
2019-02-22T19:57:55.637Z,17.27
2019-02-22T20:00:28.613Z,17.20
2019-02-22T20:03:01.605Z,17.67
2019-02-22T20:05:34.758Z,17.50
2019-02-22T20:08:08.854Z,16.77
2019-02-22T20:10:41.976Z,16.77
2019-02-22T20:13:14.818Z,16.57
2019-02-22T20:15:47.628Z,18.10
2019-02-22T20:18:21.683Z,17.90
2019-02-22T20:20:54.814Z,17.60
2019-02-22T20:23:27.963Z,17.70
2019-02-22T20:26:00.948Z,18.20
2019-02-22T20:28:35.157Z,16.80
2019-02-22T20:31:08.162Z,16.83
2019-02-22T20:33:41.149Z,17.53
2019-02-22T20:36:14.375Z,17.57
2019-02-22T20:38:47.508Z,17.23
2019-02-22T20:41:20.660Z,16.33
2019-02-22T20:43:53.573Z,16.37
2019-02-22T20:46:27.239Z,17.27
2019-02-22T20:49:01.172Z,16.53
2019-02-22T20:51:34.761Z,18.37
2019-02-22T20:54:07.955Z,17.33
2019-02-22T20:56:40.814Z,16.67
2019-02-22T20:59:13.679Z,17.80
2019-02-22T21:01:46.570Z,17.80
2019-02-22T21:04:19.680Z,18.13
2019-02-22T21:06:52.573Z,17.10
2019-02-22T21:09:25.723Z,18.47
2019-02-22T21:11:58.745Z,18.50
2019-02-22T21:14:31.948Z,18.70
2019-02-22T21:17:04.979Z,17.80
2019-02-22T21:19:38.088Z,17.63
2019-02-22T21:22:11.081Z,17.93
2019-02-22T21:24:44.133Z,17.13
2019-02-22T21:27:17.159Z,18.37
2019-02-22T21:29:50.189Z,18.23
2019-02-22T21:32:23.016Z,17.23
2019-02-22T21:34:55.856Z,18.13
2019-02-22T21:37:28.975Z,16.93
2019-02-22T21:40:02.240Z,18.47
2019-02-22T21:42:35.309Z,17.73
2019-02-22T21:45:08.846Z,18.97
2019-02-22T21:47:54.104Z,18.77
2019-02-22T21:50:18.313Z,18.50
2019-02-22T21:52:51.144Z,16.73
2019-02-22T21:55:24.093Z,17.80
2019-02-22T21:57:57.149Z,18.17
2019-02-22T22:00:30.116Z,17.77
2019-02-22T22:03:02.933Z,17.97
2019-02-22T22:05:35.840Z,17.93
2019-02-22T22:08:08.955Z,18.40
2019-02-22T22:10:42.016Z,17.63
2019-02-22T22:13:14.911Z,16.90
2019-02-22T22:15:47.880Z,17.77
2019-02-22T22:18:20.840Z,17.70
2019-02-22T22:20:54.001Z,17.10
2019-02-22T22:23:28.066Z,16.97
2019-02-22T22:26:00.924Z,18.00
2019-02-22T22:28:33.792Z,17.20
2019-02-22T22:31:06.785Z,17.33
2019-02-22T22:33:39.731Z,16.37
2019-02-22T22:36:12.626Z,17.33
2019-02-22T22:38:45.575Z,16.90
2019-02-22T22:41:18.577Z,16.40
2019-02-22T22:43:51.459Z,15.00
2019-02-22T22:46:24.519Z,16.43
2019-02-22T22:48:57.502Z,16.30
2019-02-22T22:51:30.370Z,16.00
2019-02-22T22:54:03.291Z,15.03
2019-02-22T22:56:36.780Z,15.33
2019-02-22T22:59:09.729Z,14.67
2019-02-22T23:01:42.990Z,15.17
2019-02-22T23:04:16.121Z,15.07
2019-02-22T23:06:49.130Z,14.97
2019-02-22T23:09:23.868Z,14.83
2019-02-22T23:11:56.807Z,14.50
2019-02-22T23:14:29.783Z,15.03
2019-02-22T23:17:02.809Z,15.67
2019-02-22T23:19:35.875Z,14.17
2019-02-22T23:22:08.745Z,14.23
2019-02-22T23:24:41.711Z,14.40
2019-02-22T23:27:14.529Z,14.30
2019-02-22T23:29:47.521Z,13.87
2019-02-22T23:32:20.770Z,14.07
2019-02-22T23:34:53.725Z,13.50
2019-02-22T23:37:26.913Z,13.27
2019-02-22T23:39:59.937Z,13.63
2019-02-22T23:42:32.865Z,12.30
2019-02-22T23:45:05.897Z,12.83
2019-02-22T23:47:38.878Z,11.00
2019-02-22T23:50:11.861Z,12.17
2019-02-22T23:52:44.775Z,12.97
2019-02-22T23:55:17.799Z,11.20
2019-02-22T23:57:50.689Z,12.33
